Terminal Aerodrome Forecast
Issued by NWS

Home | Current Version | Previous Version | Text Only | Print | Product List | Glossary On
Versions: 1 2 3 4 5 6 7 8 9 10 11 12 13 14 15 16 17 18 19 20 21
000
FTUS42 KTAE 202338
TAFDHN
TAF
KDHN 202338Z 2100/2124 11008KT P6SM BKN150
     FM210900 09010KT 6SM -RA BR OVC009
     FM211500 11010KT P6SM OVC015
     FM212100 12007KT P6SM -TSRA OVC050CB=

USA.gov is the U.S. government's official web portal to all federal, state and local government web resources and services.